Time;durP1;ratioP1;P1;durP2;ratioP2;P2;SDS_P1;SDS_P2;PMS_P1;PMS_P2;Temp;Humidity;BMP_temperature;BMP_pressure;BME280_temperature;BME280_humidity;BME280_pressure;Samples;Min_cycle;Max_cycle;Signal;HPM_P1;HPM_P2
2023/04/09 00:02:13;;;;;;;68.97;38.83;;;;;;;;;;4932673;29;20047;-69
2023/04/09 00:04:39;;;;;;;68.03;37.10;;;;;;;;;;4933225;29;20506;-69
2023/04/09 00:07:05;;;;;;;66.43;37.90;;;;;;;;;;4931982;29;20136;-70
2023/04/09 00:09:31;;;;;;;68.28;36.25;;;;;;;;;;4953072;28;20054;-70
2023/04/09 00:11:57;;;;;;;69.35;39.53;;;;;;;;;;4956683;29;20046;-69
2023/04/09 00:14:22;;;;;;;64.78;38.03;;;9.30;99.90;;;;;;4957519;28;20043;-70
2023/04/09 00:16:48;;;;;;;64.95;36.17;;;;;;;;;;4956780;28;20091;-69
2023/04/09 00:19:15;;;;;;;73.35;39.40;;;;;;;;;;4956402;29;20035;-69
2023/04/09 00:21:41;;;;;;;80.68;42.70;;;;;;;;;;4923241;29;20058;-70
2023/04/09 00:24:07;;;;;;;81.53;41.80;;;;;;;;;;4939222;29;20050;-70
2023/04/09 00:26:33;;;;;;;72.72;40.30;;;;;;;;;;4956531;28;20403;-69
2023/04/09 00:28:59;;;;;;;75.60;37.25;;;9.60;99.90;;;;;;4941024;29;20050;-68
2023/04/09 00:31:25;;;;;;;83.13;45.13;;;;;;;;;;4939538;29;20035;-69
2023/04/09 00:33:51;;;;;;;76.28;43.58;;;;;;;;;;4939424;29;20057;-71
2023/04/09 00:36:17;;;;;;;77.30;42.53;;;;;;;;;;4939419;29;20059;-69
2023/04/09 00:38:42;;;;;;;82.65;43.63;;;9.30;99.90;;;;;;4956572;28;20074;-70
2023/04/09 00:41:08;;;;;;;86.43;43.67;;;;;;;;;;4956927;29;20493;-70
2023/04/09 00:43:34;;;;;;;84.22;44.42;;;9.20;99.90;;;;;;4939263;29;20506;-69
2023/04/09 00:46:00;;;;;;;82.18;40.78;;;;;;;;;;4956560;29;20130;-70
2023/04/09 00:48:27;;;;;;;87.15;44.05;;;;;;;;;;4956182;29;20710;-70
2023/04/09 00:50:53;;;;;;;76.47;39.60;;;;;;;;;;4938502;29;20146;-69
2023/04/09 00:53:19;;;;;;;85.82;45.83;;;;;;;;;;4938891;29;20046;-70
2023/04/09 00:55:45;;;;;;;81.53;41.95;;;;;;;;;;4956393;28;20118;-70
2023/04/09 00:58:11;;;;;;;89.20;44.78;;;;;;;;;;4938957;29;20142;-70
2023/04/09 01:00:37;;;;;;;81.13;40.88;;;;;;;;;;4939084;29;20058;-70
2023/04/09 01:03:05;;;;;;;85.20;44.05;;;9.20;99.90;;;;;;4938903;29;20051;-70
2023/04/09 01:05:59;;;;;;;82.43;43.90;;;9.20;99.90;;;;;;4938622;29;20082;-70
2023/04/09 01:08:32;;;;;;;78.13;39.47;;;;;;;;;;4956709;29;20047;-70
2023/04/09 01:11:02;;;;;;;78.35;40.45;;;;;;;;;;4938088;29;20121;-69
2023/04/09 01:13:38;;;;;;;76.18;39.72;;;9.00;99.90;;;;;;4956098;29;20046;-70
2023/04/09 01:16:05;;;;;;;72.03;38.63;;;;;;;;;;4946835;28;20066;-70
2023/04/09 01:18:55;;;;;;;73.05;37.55;;;9.00;99.90;;;;;;4938684;29;20046;-70
2023/04/09 01:21:23;;;;;;;64.97;32.42;;;;;;;;;;4936578;29;20564;-70
2023/04/09 01:23:59;;;;;;;67.50;36.05;;;;;;;;;;4935576;29;20106;-70
2023/04/09 01:26:31;;;;;;;72.72;36.65;;;;;;;;;;4935255;29;20059;-70
2023/04/09 01:28:57;;;;;;;75.25;38.05;;;;;;;;;;4933872;29;20051;-70
2023/04/09 01:31:26;;;;;;;72.10;38.05;;;;;;;;;;4953002;29;20043;-69
2023/04/09 01:33:53;;;;;;;74.22;36.72;;;;;;;;;;4919652;29;20043;-70
2023/04/09 01:36:19;;;;;;;71.95;36.20;;;9.10;99.90;;;;;;4935475;29;20083;-70
2023/04/09 01:38:46;;;;;;;69.40;38.30;;;;;;;;;;4952573;29;20043;-69
2023/04/09 01:41:14;;;;;;;74.00;37.85;;;;;;;;;;4952646;29;20047;-70
2023/04/09 01:43:41;;;;;;;73.13;38.33;;;;;;;;;;4934858;29;20102;-69
2023/04/09 01:46:07;;;;;;;74.70;38.22;;;;;;;;;;4934587;29;20078;-69
2023/04/09 01:48:33;;;;;;;74.22;39.40;;;;;;;;;;4935529;29;20475;-69
2023/04/09 01:51:00;;;;;;;70.22;36.53;;;8.70;99.90;;;;;;4935002;29;20046;-69
2023/04/09 01:53:27;;;;;;;74.15;36.97;;;;;;;;;;4934714;29;20130;-70
2023/04/09 01:55:54;;;;;;;73.32;36.65;;;;;;;;;;4950027;29;20808;-69
2023/04/09 01:58:20;;;;;;;71.75;37.35;;;;;;;;;;4951885;29;20425;-70
2023/04/09 02:00:47;;;;;;;68.05;31.48;;;;;;;;;;4944106;29;20059;-70
2023/04/09 02:03:22;;;;;;;69.20;34.90;;;8.60;99.90;;;;;;4934413;29;20149;-69
2023/04/09 02:05:52;;;;;;;70.40;38.15;;;;;;;;;;4946799;29;20050;-70
2023/04/09 02:08:20;;;;;;;74.32;38.13;;;;;;;;;;4951603;29;20833;-70
2023/04/09 02:10:52;;;;;;;75.97;37.85;;;;;;;;;;4934268;29;20451;-69
2023/04/09 02:13:18;;;;;;;74.13;37.53;;;;;;;;;;4934696;29;20416;-69
2023/04/09 02:15:45;;;;;;;68.25;37.15;;;;;;;;;;4952233;29;20042;-69
2023/04/09 02:18:27;;;;;;;69.35;35.47;;;;;;;;;;4952154;29;20051;-69
2023/04/09 02:20:54;;;;;;;70.82;36.20;;;;;;;;;;4942533;29;20081;-69
2023/04/09 02:23:20;;;;;;;64.65;34.40;;;;;;;;;;4932343;29;20047;-69
2023/04/09 02:25:46;;;;;;;67.30;35.53;;;;;;;;;;4951902;29;20079;-69
2023/04/09 02:28:13;;;;;;;65.13;31.83;;;;;;;;;;4934296;29;20603;-69
2023/04/09 02:30:39;;;;;;;73.22;34.65;;;;;;;;;;4951579;29;20129;-69
2023/04/09 02:33:05;;;;;;;64.45;34.08;;;;;;;;;;4933942;29;20455;-69
2023/04/09 02:35:30;;;;;;;72.97;33.35;;;;;;;;;;4951591;29;20043;-70
2023/04/09 02:37:56;;;;;;;72.13;35.15;;;8.40;99.90;;;;;;4933997;29;20051;-70
2023/04/09 02:40:22;;;;;;;69.95;34.67;;;;;;;;;;4918972;29;20055;-69
2023/04/09 02:42:48;;;;;;;70.30;32.33;;;;;;;;;;4950015;28;20050;-70
2023/04/09 02:45:14;;;;;;;73.38;34.70;;;;;;;;;;4933614;29;20157;-70
2023/04/09 02:47:40;;;;;;;68.18;32.35;;;;;;;;;;4943615;28;20058;-70
2023/04/09 02:50:06;;;;;;;69.22;33.88;;;;;;;;;;4945075;29;20747;-70
2023/04/09 02:52:32;;;;;;;68.05;35.70;;;;;;;;;;4951543;29;20039;-69
2023/04/09 02:54:58;;;;;;;67.32;32.95;;;;;;;;;;4933860;29;20465;-69
2023/04/09 02:57:24;;;;;;;69.63;33.85;;;;;;;;;;4933550;29;20059;-69
2023/04/09 02:59:50;;;;;;;65.07;34.17;;;;;;;;;;4950986;29;20117;-69
2023/04/09 03:02:16;;;;;;;65.72;32.42;;;8.50;99.90;;;;;;4933011;29;20054;-69
2023/04/09 03:04:42;;;;;;;66.10;32.38;;;;;;;;;;4933455;29;20055;-70
2023/04/09 03:07:07;;;;;;;62.92;32.00;;;8.30;99.90;;;;;;4934035;29;20134;-68
2023/04/09 03:09:33;;;;;;;61.22;31.67;;;;;;;;;;4951117;29;20122;-70
2023/04/09 03:12:00;;;;;;;66.78;34.33;;;;;;;;;;4950297;29;20255;-69
2023/04/09 03:14:27;;;;;;;64.07;30.92;;;;;;;;;;4950391;29;20445;-69
2023/04/09 03:16:53;;;;;;;61.88;34.03;;;;;;;;;;4950746;29;20051;-69
2023/04/09 03:19:19;;;;;;;69.72;33.80;;;;;;;;;;4933180;29;20436;-69
2023/04/09 03:21:45;;;;;;;61.78;30.27;;;;;;;;;;4933722;29;20047;-69
2023/04/09 03:24:11;;;;;;;61.38;31.48;;;8.10;99.90;;;;;;4933446;29;20074;-69
2023/04/09 03:26:37;;;;;;;67.63;33.90;;;8.30;99.90;;;;;;4933586;29;20040;-69
2023/04/09 03:29:03;;;;;;;55.63;30.38;;;;;;;;;;4950604;29;20113;-70
2023/04/09 03:31:29;;;;;;;62.05;32.22;;;;;;;;;;4950662;29;20126;-70
2023/04/09 03:33:55;;;;;;;63.00;31.42;;;;;;;;;;4932855;29;20134;-69
2023/04/09 03:36:21;;;;;;;56.95;30.35;;;;;;;;;;4932835;29;20775;-69
2023/04/09 03:38:47;;;;;;;60.22;30.88;;;8.40;99.90;;;;;;4950349;29;20169;-69
2023/04/09 03:41:13;;;;;;;55.90;30.55;;;;;;;;;;4950224;29;20058;-69
2023/04/09 03:43:39;;;;;;;55.22;29.58;;;;;;;;;;4949810;28;20040;-69
2023/04/09 03:46:15;;;;;;;54.17;28.20;;;;;;;;;;4950459;29;20580;-69
2023/04/09 03:48:41;;;;;;;53.33;29.20;;;;;;;;;;4929297;29;20551;-69
2023/04/09 03:51:11;;;;;;;56.05;28.83;;;;;;;;;;4933569;29;20393;-69
2023/04/09 03:53:37;;;;;;;48.40;27.60;;;;;;;;;;4929630;29;20482;-70
2023/04/09 03:56:04;;;;;;;47.00;24.67;;;;;;;;;;4950462;29;20058;-70
2023/04/09 03:58:30;;;;;;;47.15;25.80;;;;;;;;;;4933583;29;20067;-69
2023/04/09 04:00:56;;;;;;;43.03;23.85;;;;;;;;;;4950805;29;20054;-69
2023/04/09 04:03:22;;;;;;;46.45;24.70;;;;;;;;;;4933382;29;20051;-69
2023/04/09 04:05:48;;;;;;;44.38;23.77;;;;;;;;;;4950220;29;20118;-69
2023/04/09 04:08:14;;;;;;;43.70;22.58;;;;;;;;;;4932786;29;20039;-69
2023/04/09 04:10:39;;;;;;;51.60;27.98;;;;;;;;;;4932420;29;20417;-69
2023/04/09 04:13:07;;;;;;;50.80;27.45;;;;;;;;;;4949844;29;20070;-69
2023/04/09 04:15:33;;;;;;;47.92;26.92;;;;;;;;;;4950327;29;20047;-70
2023/04/09 04:17:59;;;;;;;46.25;26.58;;;;;;;;;;4932562;29;20497;-70
2023/04/09 04:20:25;;;;;;;50.13;26.40;;;;;;;;;;4932930;29;20047;-70
2023/04/09 04:22:51;;;;;;;53.67;28.52;;;;;;;;;;4932693;29;20046;-69
2023/04/09 04:25:17;;;;;;;51.72;27.70;;;;;;;;;;4932745;29;20051;-69
2023/04/09 04:27:43;;;;;;;48.88;27.95;;;8.20;99.90;;;;;;4932609;29;20040;-69
2023/04/09 04:30:09;;;;;;;52.30;28.13;;;;;;;;;;4933616;29;20048;-69
2023/04/09 04:32:35;;;;;;;50.95;28.27;;;;;;;;;;4932501;29;20051;-70
2023/04/09 04:35:01;;;;;;;58.22;28.52;;;;;;;;;;4949410;29;20047;-69
2023/04/09 04:37:27;;;;;;;53.53;28.35;;;;;;;;;;4949509;29;20052;-69
2023/04/09 04:39:53;;;;;;;54.85;27.50;;;;;;;;;;4932001;29;20047;-70
2023/04/09 04:42:19;;;;;;;52.17;27.33;;;;;;;;;;4929869;29;20146;-70
2023/04/09 04:44:45;;;;;;;52.13;28.35;;;;;;;;;;4930779;29;20055;-69
2023/04/09 04:47:11;;;;;;;57.95;29.30;;;;;;;;;;4947874;29;20055;-69
2023/04/09 04:49:37;;;;;;;56.30;28.70;;;;;;;;;;4930991;29;20074;-69
2023/04/09 04:52:02;;;;;;;52.50;27.92;;;;;;;;;;4930731;29;20481;-70
2023/04/09 04:54:28;;;;;;;56.90;28.67;;;8.10;99.90;;;;;;4930659;29;20122;-69
2023/04/09 04:56:55;;;;;;;50.28;29.00;;;;;;;;;;4933711;29;20048;-69
2023/04/09 04:59:21;;;;;;;49.70;28.50;;;;;;;;;;4951993;29;20051;-70
2023/04/09 05:01:47;;;;;;;51.75;28.13;;;;;;;;;;4934506;29;20047;-69
2023/04/09 05:04:13;;;;;;;52.78;28.60;;;;;;;;;;4931205;29;20717;-69
2023/04/09 05:06:39;;;;;;;49.08;26.65;;;;;;;;;;4935056;28;20051;-69
2023/04/09 05:09:05;;;;;;;44.08;26.80;;;;;;;;;;4937495;28;20054;-69
2023/04/09 05:11:31;;;;;;;43.83;26.25;;;;;;;;;;4927674;29;20043;-70
2023/04/09 05:13:57;;;;;;;49.53;28.20;;;;;;;;;;4926622;29;20098;-70
2023/04/09 05:16:23;;;;;;;46.58;25.15;;;;;;;;;;4946659;28;20501;-70
2023/04/09 05:18:49;;;;;;;45.90;27.13;;;;;;;;;;4931977;29;20408;-70
2023/04/09 05:21:15;;;;;;;48.70;27.65;;;;;;;;;;4930460;29;20596;-70
2023/04/09 05:23:41;;;;;;;49.97;26.95;;;;;;;;;;4949663;28;20122;-70
2023/04/09 05:26:16;;;;;;;51.83;28.10;;;;;;;;;;4931334;29;20457;-70
2023/04/09 05:28:42;;;;;;;;;;;;;;;;;;4931800;29;20496;-69
2023/04/09 05:31:11;;;;;;;52.63;27.85;;;;;;;;;;4948253;29;19930;-71
2023/04/09 05:33:37;;;;;;;47.92;26.83;;;;;;;;;;4931559;29;20576;-70
2023/04/09 05:36:04;;;;;;;50.83;26.52;;;;;;;;;;4934224;29;20058;-71
2023/04/09 05:38:30;;;;;;;51.90;29.05;;;;;;;;;;4931913;29;20525;-69
2023/04/09 05:40:56;;;;;;;53.58;29.73;;;;;;;;;;4932216;29;20548;-69
2023/04/09 05:43:22;;;;;;;54.25;27.67;;;;;;;;;;4932030;29;20054;-69
2023/04/09 05:45:48;;;;;;;51.90;28.50;;;;;;;;;;4932644;28;20071;-71
2023/04/09 05:48:15;;;;;;;54.70;29.80;;;;;;;;;;4949288;29;20047;-70
2023/04/09 05:50:41;;;;;;;49.65;28.15;;;;;;;;;;4930964;29;20066;-68
2023/04/09 05:53:07;;;;;;;49.55;27.30;;;;;;;;;;4931244;29;20390;-69
2023/04/09 05:55:33;;;;;;;55.53;29.42;;;;;;;;;;4932850;29;20066;-68
2023/04/09 05:58:00;;;;;;;54.75;29.23;;;;;;;;;;4949648;28;20067;-69
2023/04/09 06:00:26;;;;;;;49.47;27.92;;;;;;;;;;4932600;29;20051;-69
2023/04/09 06:02:52;;;;;;;51.10;29.55;;;;;;;;;;4950485;28;20046;-71
2023/04/09 06:05:18;;;;;;;54.65;29.25;;;;;;;;;;4932587;29;20047;-69
2023/04/09 06:07:43;;;;;;;53.20;28.90;;;;;;;;;;4931172;28;20058;-70
2023/04/09 06:10:09;;;;;;;56.83;30.75;;;;;;;;;;4947919;29;20043;-68
2023/04/09 06:12:35;;;;;;;54.60;30.92;;;;;;;;;;4928989;29;20094;-69
2023/04/09 06:15:02;;;;;;;55.97;30.02;;;;;;;;;;4930768;28;20079;-68
2023/04/09 06:17:29;;;;;;;53.72;30.90;;;;;;;;;;4944848;29;20046;-68
2023/04/09 06:19:55;;;;;;;61.53;31.25;;;;;;;;;;4943830;28;20141;-69
2023/04/09 06:22:21;;;;;;;53.05;28.40;;;;;;;;;;4948130;28;20150;-69
2023/04/09 06:24:47;;;;;;;50.08;28.55;;;;;;;;;;4952759;28;20397;-69
2023/04/09 06:27:13;;;;;;;53.35;29.58;;;;;;;;;;4952908;28;20206;-69
2023/04/09 06:29:39;;;;;;;48.05;27.27;;;;;;;;;;4931881;29;20054;-68
2023/04/09 06:32:05;;;;;;;50.63;27.50;;;;;;;;;;4930416;29;20078;-68
2023/04/09 06:34:31;;;;;;;54.55;27.27;;;;;;;;;;4933321;29;20043;-68
2023/04/09 06:36:57;;;;;;;54.10;29.20;;;;;;;;;;4949926;28;20050;-68
2023/04/09 06:39:23;;;;;;;52.00;27.52;;;;;;;;;;4950844;28;20042;-68
2023/04/09 06:41:49;;;;;;;52.33;28.65;;;;;;;;;;4946861;28;20069;-68
2023/04/09 06:44:15;;;;;;;52.38;29.02;;;;;;;;;;4950443;29;20170;-69
2023/04/09 06:46:41;;;;;;;50.08;26.52;;;;;;;;;;4953085;28;20130;-68
2023/04/09 06:49:07;;;;;;;53.10;28.83;;;;;;;;;;4950505;28;20043;-69
2023/04/09 06:51:33;;;;;;;55.83;29.25;;;;;;;;;;4932231;29;20038;-70
2023/04/09 06:53:58;;;;;;;54.33;29.50;;;8.40;99.90;;;;;;4934429;28;20106;-69
2023/04/09 06:56:24;;;;;;;49.30;26.27;;;;;;;;;;4955520;28;20076;-70
2023/04/09 06:58:50;;;;;;;56.40;28.73;;;;;;;;;;4931576;29;20035;-69
2023/04/09 07:01:17;;;;;;;50.72;28.55;;;;;;;;;;4949729;28;20055;-71
2023/04/09 07:03:43;;;;;;;55.33;29.15;;;;;;;;;;4948677;29;20532;-70
2023/04/09 07:06:09;;;;;;;49.78;28.65;;;;;;;;;;4948589;28;20129;-69
2023/04/09 07:08:35;;;;;;;54.55;28.63;;;;;;;;;;4948916;29;20155;-69
2023/04/09 07:11:02;;;;;;;47.97;25.73;;;;;;;;;;4935899;28;20177;-69
2023/04/09 07:13:28;;;;;;;50.97;26.90;;;;;;;;;;4931313;29;20031;-69
2023/04/09 07:15:54;;;;;;;49.38;28.27;;;;;;;;;;4948321;28;20043;-68
2023/04/09 07:18:19;;;;;;;49.80;28.10;;;8.30;99.90;;;;;;4947187;28;20046;-68
2023/04/09 07:20:45;;;;;;;52.78;29.25;;;;;;;;;;4947907;28;20043;-68
2023/04/09 07:23:15;;;;;;;53.03;29.73;;;;;;;;;;4948575;29;20051;-68
2023/04/09 07:25:41;;;;;;;54.33;28.73;;;;;;;;;;4946947;28;20117;-70
2023/04/09 07:28:07;;;;;;;51.17;28.80;;;;;;;;;;4931642;29;20154;-68
2023/04/09 07:30:33;;;;;;;50.38;26.13;;;;;;;;;;4930481;28;20046;-69
2023/04/09 07:32:59;;;;;;;50.00;26.52;;;;;;;;;;4930009;29;20047;-67
2023/04/09 07:35:24;;;;;;;52.22;28.67;;;8.60;99.90;;;;;;4931158;29;20051;-68
2023/04/09 07:37:50;;;;;;;51.40;28.40;;;;;;;;;;4949210;28;20496;-68
2023/04/09 07:40:16;;;;;;;50.47;27.27;;;;;;;;;;4932090;29;20414;-68
2023/04/09 07:42:42;;;;;;;44.33;25.25;;;;;;;;;;4931323;29;20088;-68
2023/04/09 07:45:08;;;;;;;45.60;26.88;;;;;;;;;;4947723;28;20055;-68
2023/04/09 07:47:35;;;;;;;50.13;27.65;;;;;;;;;;4947827;28;20134;-69
2023/04/09 07:50:00;;;;;;;48.95;26.30;;;8.60;99.90;;;;;;4948522;29;20043;-68
2023/04/09 07:52:26;;;;;;;46.47;25.77;;;;;;;;;;4948899;28;20453;-67
2023/04/09 07:54:52;;;;;;;42.90;25.00;;;;;;;;;;4930843;29;21263;-66
2023/04/09 07:57:18;;;;;;;46.58;25.23;;;8.70;99.90;;;;;;4930581;29;20050;-66
2023/04/09 07:59:44;;;;;;;47.72;25.95;;;;;;;;;;4959999;28;20725;-68
2023/04/09 08:02:10;;;;;;;44.22;26.67;;;;;;;;;;4955463;28;20445;-69
2023/04/09 08:04:36;;;;;;;48.25;25.88;;;;;;;;;;4948367;28;20106;-69
2023/04/09 08:07:02;;;;;;;54.50;28.50;;;;;;;;;;4948496;28;20051;-71
2023/04/09 08:09:28;;;;;;;49.53;27.70;;;;;;;;;;4948430;29;20044;-70
2023/04/09 08:11:54;;;;;;;44.15;25.42;;;;;;;;;;4931097;29;20121;-69
2023/04/09 08:14:20;;;;;;;47.33;25.95;;;;;;;;;;4929915;28;20062;-70
2023/04/09 08:16:47;;;;;;;47.65;26.92;;;;;;;;;;4948481;28;20050;-74
2023/04/09 08:19:13;;;;;;;47.95;26.15;;;;;;;;;;4930418;29;20109;-71
2023/04/09 08:21:42;;;;;;;49.25;28.50;;;;;;;;;;4948481;28;20043;-69
2023/04/09 08:24:08;;;;;;;43.90;25.00;;;;;;;;;;4931271;28;20085;-70
2023/04/09 08:26:34;;;;;;;48.80;27.40;;;;;;;;;;4938380;28;20050;-68
2023/04/09 08:29:00;;;;;;;47.78;26.85;;;;;;;;;;4953648;28;20047;-71
2023/04/09 08:31:26;;;;;;;43.00;25.58;;;;;;;;;;4934359;28;20046;-72
2023/04/09 08:33:52;;;;;;;44.53;26.92;;;;;;;;;;4935454;29;20039;-68
2023/04/09 08:36:18;;;;;;;41.97;25.48;;;;;;;;;;4936784;28;20591;-69
2023/04/09 08:38:45;;;;;;;48.72;29.05;;;;;;;;;;4950639;28;20046;-69
2023/04/09 08:41:24;;;;;;;46.78;28.42;;;;;;;;;;4937044;28;20051;-69
2023/04/09 08:43:51;;;;;;;40.58;22.77;;;9.00;99.90;;;;;;4934135;29;20106;-69
2023/04/09 08:46:21;;;;;;;40.10;23.17;;;;;;;;;;4933609;28;20038;-69
2023/04/09 08:48:48;;;;;;;45.20;26.02;;;;;;;;;;4934101;29;20081;-69
2023/04/09 08:51:15;;;;;;;43.85;24.52;;;9.00;99.90;;;;;;4952984;28;20039;-69
2023/04/09 08:53:55;;;;;;;43.65;25.63;;;;;;;;;;4934714;29;20054;-69
2023/04/09 08:56:22;;;;;;;39.83;23.27;;;;;;;;;;4932644;28;20421;-71
2023/04/09 08:58:48;;;;;;;42.65;24.92;;;;;;;;;;4934712;29;20126;-71
2023/04/09 09:01:25;;;;;;;42.20;25.52;;;;;;;;;;4934984;28;20141;-72
2023/04/09 09:04:18;;;;;;;40.83;22.98;;;9.20;99.90;;;;;;4951816;29;20567;-70
2023/04/09 09:06:44;;;;;;;40.28;24.02;;;;;;;;;;4931072;29;20058;-70
2023/04/09 09:09:12;;;;;;;40.72;24.08;;;9.10;99.90;;;;;;4951710;28;20058;-69
2023/04/09 09:11:40;;;;;;;39.72;22.73;;;;;;;;;;4934940;29;20398;-69
2023/04/09 09:14:08;;;;;;;37.85;22.88;;;9.30;99.90;;;;;;4952389;29;20533;-70
2023/04/09 09:16:38;;;;;;;40.00;22.77;;;;;;;;;;4951977;28;20509;-69
2023/04/09 09:19:04;;;;;;;36.08;21.27;;;;;;;;;;4935429;28;20047;-70
2023/04/09 09:21:30;;;;;;;36.75;22.05;;;;;;;;;;4953989;28;20732;-69
2023/04/09 09:23:57;;;;;;;38.33;22.27;;;9.70;99.90;;;;;;4935377;28;20051;-70
2023/04/09 09:26:24;;;;;;;35.80;21.83;;;;;;;;;;4951709;28;20433;-69
2023/04/09 09:28:50;;;;;;;36.00;21.85;;;;;;;;;;4951636;29;20055;-69
2023/04/09 09:31:18;;;;;;;33.63;21.75;;;9.90;99.90;;;;;;4951537;29;20101;-71
2023/04/09 09:33:45;;;;;;;35.15;21.88;;;;;;;;;;4950238;28;20043;-70
2023/04/09 09:36:11;;;;;;;35.60;21.35;;;;;;;;;;4952184;28;20051;-71
2023/04/09 09:38:54;;;;;;;41.40;23.75;;;10.30;99.90;;;;;;4935487;29;20138;-70
2023/04/09 09:41:20;;;;;;;38.38;22.13;;;;;;;;;;4933181;28;20059;-70
2023/04/09 09:43:46;;;;;;;36.83;21.65;;;;;;;;;;4936166;29;20051;-70
2023/04/09 09:46:12;;;;;;;36.78;22.50;;;10.80;99.90;;;;;;4950691;29;20516;-70
2023/04/09 09:48:38;;;;;;;34.08;22.38;;;;;;;;;;4932288;29;20045;-70
2023/04/09 09:51:11;;;;;;;37.67;23.70;;;;;;;;;;4932950;29;20434;-71
2023/04/09 09:53:38;;;;;;;37.08;22.27;;;11.30;99.90;;;;;;4952900;28;20122;-70
2023/04/09 09:56:05;;;;;;;37.38;22.90;;;;;;;;;;4933661;29;20549;-70
2023/04/09 09:58:55;;;;;;;35.92;22.35;;;11.40;99.90;;;;;;4933048;29;20055;-73
2023/04/09 10:01:24;;;;;;;35.90;22.23;;;11.60;99.90;;;;;;4937589;28;20090;-70
2023/04/09 10:03:51;;;;;;;34.35;22.38;;;;;;;;;;4928989;29;20066;-70
2023/04/09 10:06:17;;;;;;;33.72;22.30;;;;;;;;;;4946805;28;20129;-70
2023/04/09 10:08:45;;;;;;;35.55;22.77;;;;;;;;;;4933691;29;20517;-70
2023/04/09 10:11:11;;;;;;;35.47;22.70;;;;;;;;;;4951682;28;20058;-70
2023/04/09 10:13:43;;;;;;;30.63;20.05;;;13.00;99.90;;;;;;4933752;29;20051;-70
2023/04/09 10:16:08;;;;;;;33.63;21.65;;;13.00;99.90;;;;;;4950486;29;20090;-70
2023/04/09 10:18:35;;;;;;;33.08;21.75;;;12.90;99.90;;;;;;4949534;28;20047;-70
2023/04/09 10:21:01;;;;;;;33.17;20.92;;;;;;;;;;4952533;28;20047;-70
2023/04/09 10:23:36;;;;;;;35.70;22.13;;;13.20;99.90;;;;;;4950656;28;20039;-71
2023/04/09 10:26:03;;;;;;;34.15;22.25;;;;;;;;;;4932606;29;20709;-71
2023/04/09 10:28:30;;;;;;;33.30;21.30;;;13.70;99.90;;;;;;4933488;29;20051;-71
2023/04/09 10:30:56;;;;;;;35.08;22.00;;;;;;;;;;4938141;28;20410;-71
2023/04/09 10:33:26;;;;;;;32.08;20.58;;;13.60;99.90;;;;;;4949397;28;20221;-70
2023/04/09 10:36:00;;;;;;;33.25;21.33;;;13.40;99.90;;;;;;4931747;29;20047;-70
2023/04/09 10:38:37;;;;;;;31.17;21.77;;;13.30;99.90;;;;;;4950878;28;20039;-70
2023/04/09 10:41:20;;;;;;;34.50;22.83;;;13.40;99.90;;;;;;4949344;29;20039;-70
2023/04/09 10:43:46;;;;;;;38.50;25.02;;;14.00;99.90;;;;;;4954052;28;20039;-71
2023/04/09 10:46:28;;;;;;;31.83;20.65;;;14.00;99.90;;;;;;4946617;29;20035;-71
2023/04/09 10:49:09;;;;;;;31.23;21.50;;;14.00;99.90;;;;;;4950244;28;20119;-71
2023/04/09 10:51:38;;;;;;;30.13;19.73;;;;;;;;;;4932199;29;20038;-70
2023/04/09 10:54:32;;;;;;;31.00;21.10;;;14.10;99.90;;;;;;4926420;29;20451;-68
2023/04/09 10:57:07;;;;;;;30.73;19.73;;;13.70;99.90;;;;;;4947783;28;20087;-69
2023/04/09 10:59:42;;;;;;;32.83;21.58;;;13.70;99.90;;;;;;4934720;28;20058;-69
2023/04/09 11:02:14;;;;;;;31.38;20.63;;;13.80;99.90;;;;;;4932542;28;20580;-69
2023/04/09 11:05:15;;;;;;;31.73;21.35;;;13.70;99.90;;;;;;4949233;29;20055;-68
2023/04/09 11:07:45;;;;;;;33.40;20.65;;;13.80;99.90;;;;;;4928954;29;20087;-69
2023/04/09 11:10:11;;;;;;;28.58;20.00;;;;;;;;;;4931925;29;20051;-69
2023/04/09 11:12:37;;;;;;;30.42;20.40;;;;;;;;;;4949681;28;20114;-69
2023/04/09 11:15:03;;;;;;;31.20;19.20;;;14.10;99.90;;;;;;4931817;29;20051;-69
2023/04/09 11:18:22;;;;;;;33.40;19.98;;;14.20;99.90;;;;;;4950202;28;20042;-69
2023/04/09 11:20:48;;;;;;;35.83;21.02;;;;;;;;;;4930448;29;20046;-70
2023/04/09 11:23:16;;;;;;;30.02;19.65;;;14.40;99.90;;;;;;4952074;28;20469;-69
2023/04/09 11:25:42;;;;;;;26.17;16.30;;;;;;;;;;4949506;29;20041;-69
2023/04/09 11:28:08;;;;;;;36.05;19.77;;;;;;;;;;4949567;28;20054;-70
2023/04/09 11:30:36;;;;;;;30.13;19.27;;;14.50;99.90;;;;;;4931952;29;20082;-69
2023/04/09 11:33:02;;;;;;;31.73;20.05;;;14.50;99.90;;;;;;4951893;28;20400;-75
2023/04/09 11:35:28;;;;;;;29.30;19.50;;;;;;;;;;4921376;29;20055;-74
2023/04/09 11:37:54;;;;;;;29.98;18.08;;;14.30;99.90;;;;;;4930632;29;20425;-70
2023/04/09 11:40:25;;;;;;;24.83;15.48;;;14.60;99.90;;;;;;4931202;29;20050;-71
2023/04/09 11:42:53;;;;;;;30.13;18.90;;;14.40;99.90;;;;;;4931660;29;20051;-71
2023/04/09 11:45:21;;;;;;;29.90;19.60;;;14.30;99.90;;;;;;4949476;28;20043;-71
2023/04/09 11:47:47;;;;;;;28.27;18.10;;;14.30;99.90;;;;;;4948553;28;20043;-70
2023/04/09 11:50:14;;;;;;;29.88;19.80;;;14.20;99.90;;;;;;4929431;29;20615;-72
2023/04/09 11:52:40;;;;;;;28.85;18.42;;;;;;;;;;4948889;28;20043;-73
2023/04/09 11:55:07;;;;;;;31.95;20.80;;;14.20;99.90;;;;;;4948773;28;20047;-71
2023/04/09 11:57:44;;;;;;;31.30;20.00;;;14.00;99.90;;;;;;4938676;28;20501;-74
2023/04/09 12:00:15;;;;;;;31.00;19.67;;;13.70;99.90;;;;;;4930776;29;20083;-72
2023/04/09 12:02:46;;;;;;;30.30;18.13;;;14.00;99.90;;;;;;4948354;28;20039;-71
2023/04/09 12:05:26;;;;;;;33.65;20.23;;;13.90;99.90;;;;;;4922209;29;20426;-71
2023/04/09 12:07:58;;;;;;;32.45;19.67;;;14.20;99.90;;;;;;4930817;29;20401;-73
2023/04/09 12:10:28;;;;;;;29.45;18.90;;;13.90;99.90;;;;;;4931097;29;20089;-74
2023/04/09 12:12:55;;;;;;;27.58;17.92;;;;;;;;;;4948767;28;20039;-77
2023/04/09 12:15:24;;;;;;;31.02;18.85;;;14.00;99.90;;;;;;4932128;28;20509;-71
2023/04/09 12:17:52;;;;;;;27.83;17.17;;;13.90;99.90;;;;;;4930472;29;20110;-72
2023/04/09 12:20:41;;;;;;;27.20;17.40;;;14.10;99.90;;;;;;4930959;29;20039;-72
2023/04/09 12:23:08;;;;;;;27.27;18.42;;;14.00;99.90;;;;;;4950330;28;20043;-72
2023/04/09 12:25:44;;;;;;;24.52;16.58;;;14.10;99.90;;;;;;4930551;29;20569;-70
2023/04/09 12:28:15;;;;;;;27.52;17.48;;;14.10;99.90;;;;;;4929823;29;20055;-70
2023/04/09 12:30:42;;;;;;;28.38;18.25;;;14.20;99.90;;;;;;4948352;28;20066;-72
2023/04/09 12:33:07;;;;;;;24.67;18.23;;;;;;;;;;4930090;29;20043;-72
2023/04/09 12:35:34;;;;;;;25.13;17.20;;;;;;;;;;4930283;29;21088;-70
2023/04/09 12:38:00;;;;;;;26.25;16.70;;;;;;;;;;4931079;28;20062;-71
2023/04/09 12:40:26;;;;;;;24.50;15.73;;;;;;;;;;4941194;28;20090;-71
2023/04/09 12:42:53;;;;;;;23.88;16.85;;;;;;;;;;4930081;28;20156;-72
2023/04/09 12:45:19;;;;;;;23.27;16.10;;;;;;;;;;4922419;29;20914;-72
2023/04/09 12:47:45;;;;;;;21.30;13.65;;;;;;;;;;4945133;28;20050;-76
2023/04/09 12:50:12;;;;;;;21.20;14.05;;;14.70;99.90;;;;;;4930805;29;20043;-74
2023/04/09 12:52:38;;;;;;;22.17;15.93;;;14.90;99.90;;;;;;4915887;28;20182;-72
2023/04/09 12:55:05;;;;;;;22.85;15.02;;;14.90;99.90;;;;;;4934738;29;20837;-71
2023/04/09 12:57:30;;;;;;;23.80;14.68;;;14.90;99.90;;;;;;4929005;29;20057;-72
2023/04/09 12:59:57;;;;;;;23.60;15.02;;;14.70;99.90;;;;;;4948169;28;20047;-69
2023/04/09 13:02:23;;;;;;;22.42;15.07;;;;;;;;;;4939245;28;20047;-69
2023/04/09 13:04:49;;;;;;;21.98;14.68;;;14.90;99.90;;;;;;4948539;28;20118;-69
2023/04/09 13:07:16;;;;;;;20.48;13.43;;;15.20;99.90;;;;;;4947909;28;20043;-72
2023/04/09 13:09:43;;;;;;;20.80;14.18;;;;;;;;;;4926344;28;20035;-73
2023/04/09 13:12:10;;;;;;;25.75;16.17;;;;;;;;;;4930927;29;20132;-70
2023/04/09 13:14:36;;;;;;;21.67;14.43;;;;;;;;;;4930738;29;20062;-70
2023/04/09 13:17:01;;;;;;;22.00;14.45;;;15.00;99.90;;;;;;4948261;28;20094;-71
2023/04/09 13:19:27;;;;;;;22.02;13.95;;;15.20;99.90;;;;;;4933043;29;20043;-70
2023/04/09 13:21:53;;;;;;;21.98;13.88;;;;;;;;;;4932579;29;20051;-70
2023/04/09 13:24:19;;;;;;;23.20;14.48;;;;;;;;;;4936077;29;20074;-70
2023/04/09 13:26:46;;;;;;;24.15;16.08;;;;;;;;;;4932997;28;20051;-70
2023/04/09 13:29:12;;;;;;;22.80;15.75;;;;;;;;;;4935990;29;20070;-69
2023/04/09 13:31:38;;;;;;;24.42;15.57;;;;;;;;;;4937044;28;20067;-71
2023/04/09 13:34:05;;;;;;;24.48;14.05;;;;;;;;;;4932664;29;20047;-70
2023/04/09 13:36:31;;;;;;;22.38;13.80;;;;;;;;;;4942835;28;20055;-72
2023/04/09 13:39:03;;;;;;;22.13;13.52;;;15.00;99.90;;;;;;4952911;28;20043;-72
2023/04/09 13:41:30;;;;;;;24.40;13.27;;;14.90;99.90;;;;;;4917231;29;20125;-69
2023/04/09 13:43:56;;;;;;;24.35;15.30;;;;;;;;;;4934128;29;20129;-73
2023/04/09 13:46:22;;;;;;;22.92;14.50;;;;;;;;;;4950059;28;20509;-71
2023/04/09 13:48:50;;;;;;;22.33;14.82;;;15.10;99.90;;;;;;4956704;28;20613;-68